createdAt,value
2023-05-01T07:01:19.208Z,15.60
2023-05-01T07:06:23.583Z,15.60
2023-05-01T07:11:28.121Z,15.80
2023-05-01T07:16:34.542Z,16.10
2023-05-01T07:21:38.713Z,16.40
2023-05-01T07:26:43.060Z,16.70
2023-05-01T07:31:49.197Z,17.30
2023-05-01T07:36:53.394Z,18.00
2023-05-01T07:41:59.262Z,18.30
2023-05-01T07:47:08.438Z,18.70
2023-05-01T07:52:12.846Z,19.00
2023-05-01T07:57:16.883Z,19.30
2023-05-01T08:02:23.025Z,19.60
2023-05-01T08:07:27.296Z,19.80
2023-05-01T08:12:31.687Z,19.90
2023-05-01T08:17:37.669Z,19.80
2023-05-01T08:22:41.864Z,20.10
2023-05-01T08:27:46.255Z,20.40
2023-05-01T08:32:52.417Z,20.80
2023-05-01T08:37:56.460Z,21.90
2023-05-01T08:43:02.195Z,22.80
2023-05-01T08:48:10.378Z,22.90
2023-05-01T08:53:15.409Z,22.90
2023-05-01T08:58:19.817Z,22.90
2023-05-01T09:03:26.141Z,23.10
2023-05-01T09:08:30.234Z,23.60
2023-05-01T09:13:34.243Z,23.60
2023-05-01T09:18:40.691Z,23.70
2023-05-01T09:23:44.775Z,24.30
2023-05-01T09:28:51.474Z,24.80
2023-05-01T09:33:58.474Z,24.40
2023-05-01T09:39:03.559Z,24.40
2023-05-01T09:44:07.503Z,24.80
2023-05-01T09:49:13.642Z,25.10
2023-05-01T12:30:03.996Z,26.80
2023-05-01T12:35:17.643Z,26.60
2023-05-01T12:40:22.453Z,26.80
2023-05-01T12:45:28.463Z,27.10
2023-05-01T12:50:38.447Z,27.40
2023-05-01T12:55:49.502Z,27.40
2023-05-01T13:00:56.957Z,27.10
2023-05-01T13:06:02.552Z,26.70
2023-05-01T13:11:12.657Z,26.30
2023-05-01T13:16:19.752Z,25.90
2023-05-01T13:21:28.266Z,25.60
2023-05-01T13:26:35.118Z,25.60
2023-05-01T13:31:42.089Z,25.90
2023-05-01T13:36:46.125Z,26.30
2023-05-01T13:41:50.319Z,26.40
2023-05-01T13:46:56.424Z,26.40
2023-05-01T13:52:00.444Z,26.20
2023-05-01T13:57:04.654Z,25.60
2023-05-01T14:02:21.999Z,24.70
2023-05-01T14:07:27.411Z,23.70
2023-05-01T14:12:32.693Z,22.80
2023-05-01T14:17:39.014Z,21.90
2023-05-01T14:22:45.257Z,21.00
2023-05-01T14:27:49.232Z,20.30
2023-05-01T14:32:55.412Z,19.60
2023-05-01T14:38:00.827Z,18.90
2023-05-01T14:43:04.841Z,18.50
2023-05-01T14:48:11.182Z,18.10
2023-05-01T14:53:15.226Z,17.70
2023-05-01T14:58:19.228Z,17.50
2023-05-01T15:03:25.467Z,17.40
2023-05-01T15:08:31.905Z,17.40
2023-05-01T15:13:36.152Z,17.40
2023-05-01T15:18:42.522Z,17.50
2023-05-01T15:23:46.606Z,17.50
2023-05-01T15:28:51.565Z,17.60
2023-05-01T15:33:57.655Z,17.50
2023-05-01T15:39:01.672Z,17.60
2023-05-01T15:44:07.530Z,17.50
2023-05-01T15:49:13.426Z,17.50
2023-05-01T15:54:17.531Z,17.60
2023-05-01T15:59:21.576Z,17.50
2023-05-01T16:04:27.563Z,17.50
2023-05-01T16:09:32.490Z,17.60
2023-05-01T16:14:37.284Z,17.90
2023-05-01T16:19:43.128Z,18.30
2023-05-01T16:24:47.253Z,18.60
2023-05-01T16:29:51.415Z,18.80
2023-05-01T16:34:58.252Z,18.90
2023-05-01T16:40:02.970Z,18.80
2023-05-01T16:45:09.913Z,18.60
2023-05-01T16:50:16.483Z,18.30
2023-05-01T16:55:20.791Z,18.20
2023-05-01T17:00:28.713Z,18.10
2023-05-01T17:05:34.969Z,17.90
2023-05-01T17:10:39.982Z,17.70
2023-05-01T17:15:44.291Z,17.40
2023-05-01T17:20:53.767Z,17.20
2023-05-01T17:25:57.805Z,16.90
2023-05-01T17:31:02.089Z,16.70
2023-05-01T17:36:08.258Z,16.40
2023-05-01T17:41:12.214Z,16.20
2023-05-01T17:46:16.804Z,16.00
2023-05-01T17:51:22.975Z,15.90
2023-05-01T17:56:27.776Z,15.70
2023-05-01T18:01:31.853Z,15.60
2023-05-01T18:06:38.136Z,15.40
2023-05-01T18:11:42.302Z,15.30
2023-05-01T18:16:46.310Z,15.10
2023-05-01T18:21:53.037Z,15.00
2023-05-01T18:26:56.986Z,14.90
2023-05-01T18:32:01.274Z,14.80
2023-05-01T18:37:07.331Z,14.70
2023-05-01T18:42:11.629Z,14.50
2023-05-01T18:47:15.699Z,14.30
2023-05-01T18:52:21.970Z,14.10
2023-05-01T18:57:27.412Z,13.90
2023-05-01T19:02:31.425Z,13.70
2023-05-01T19:07:37.641Z,13.50
2023-05-01T19:12:41.609Z,13.30
2023-05-01T19:17:45.809Z,13.20
2023-05-01T19:22:52.239Z,13.00
2023-05-01T19:27:56.791Z,12.90
2023-05-01T19:33:00.906Z,12.80
2023-05-01T19:38:07.184Z,12.60
2023-05-01T19:43:12.806Z,12.50
2023-05-01T19:48:17.072Z,12.50
2023-05-01T19:53:23.194Z,12.40
2023-05-01T19:58:28.382Z,12.30
2023-05-01T20:03:32.772Z,12.30
2023-05-01T20:08:38.957Z,12.20
2023-05-01T20:13:42.944Z,12.20
2023-05-01T20:18:47.304Z,12.10
2023-05-01T20:23:53.925Z,12.00
2023-05-01T20:28:58.158Z,12.00
2023-05-01T20:34:02.213Z,12.00
2023-05-01T20:39:08.425Z,12.00
2023-05-01T20:44:12.857Z,12.10
2023-05-01T20:49:17.137Z,12.20
2023-05-01T20:54:23.221Z,12.20
2023-05-01T20:59:27.394Z,12.10
2023-05-01T21:04:31.577Z,12.00
2023-05-01T21:09:37.703Z,11.80
2023-05-01T21:14:41.800Z,11.70
2023-05-01T21:19:47.528Z,11.70
2023-05-01T21:24:54.900Z,11.60
2023-05-01T21:30:00.644Z,11.50
2023-05-01T21:35:06.411Z,11.40
2023-05-01T21:40:15.139Z,11.40
2023-05-01T21:45:20.683Z,11.40
2023-05-01T21:50:27.589Z,11.40
2023-05-01T21:55:38.657Z,11.40
2023-05-01T22:00:43.175Z,11.40
2023-05-01T22:05:47.606Z,11.40
2023-05-01T22:10:53.796Z,11.50
2023-05-01T22:15:58.123Z,11.70
2023-05-01T22:21:02.961Z,11.80
2023-05-01T22:26:09.648Z,11.90
2023-05-01T22:31:13.697Z,12.00
2023-05-01T22:36:17.895Z,12.00
2023-05-01T22:41:23.800Z,12.00
